createdAt,value
2016-07-30T00:00:22.751Z,0
2016-07-30T00:01:22.740Z,0
2016-07-30T00:02:23.416Z,0
2016-07-30T00:03:22.700Z,0
2016-07-30T00:04:22.685Z,0
2016-07-30T00:05:22.661Z,0
2016-07-30T00:06:22.641Z,0
2016-07-30T00:07:22.626Z,0
2016-07-30T00:08:22.605Z,0
2016-07-30T00:09:22.590Z,0
2016-07-30T00:10:22.568Z,0
2016-07-30T00:11:22.546Z,0
2016-07-30T00:12:22.540Z,0
2016-07-30T00:13:22.519Z,0
2016-07-30T00:14:22.490Z,0
2016-07-30T00:15:22.475Z,0
2016-07-30T00:16:22.455Z,0
2016-07-30T00:17:22.436Z,0
2016-07-30T00:18:22.420Z,0
2016-07-30T00:19:22.400Z,0
2016-07-30T00:20:22.382Z,0
2016-07-30T00:21:22.361Z,0
2016-07-30T00:22:22.340Z,0
2016-07-30T00:23:22.322Z,0
2016-07-30T00:24:22.311Z,0
2016-07-30T00:25:22.286Z,0
2016-07-30T00:26:22.269Z,0
2016-07-30T00:27:22.248Z,0
2016-07-30T00:28:22.231Z,0
2016-07-30T00:29:22.213Z,0
2016-07-30T00:30:22.190Z,0
2016-07-30T00:31:22.172Z,0
2016-07-30T00:32:22.153Z,0
2016-07-30T00:33:22.133Z,0
2016-07-30T00:34:22.116Z,0
2016-07-30T00:35:22.098Z,0
2016-07-30T00:36:22.088Z,0
2016-07-30T00:37:22.059Z,0
2016-07-30T00:38:22.042Z,0
2016-07-30T00:39:22.021Z,0
2016-07-30T00:40:22.000Z,0
2016-07-30T00:41:21.983Z,0
2016-07-30T00:42:21.964Z,0
2016-07-30T00:43:21.944Z,0
2016-07-30T00:44:21.924Z,0
2016-07-30T00:45:21.907Z,0
2016-07-30T00:46:21.885Z,0
2016-07-30T00:47:21.870Z,0
2016-07-30T00:48:21.847Z,0
2016-07-30T00:49:21.830Z,0
2016-07-30T00:50:21.810Z,0
2016-07-30T00:51:21.795Z,0
2016-07-30T00:52:21.768Z,0
2016-07-30T00:53:21.762Z,0
2016-07-30T00:54:21.739Z,0
2016-07-30T00:55:21.719Z,0
2016-07-30T00:56:21.700Z,0
2016-07-30T00:57:21.684Z,0
2016-07-30T00:58:21.662Z,0
2016-07-30T00:59:21.640Z,0
2016-07-30T01:00:21.625Z,0
2016-07-30T01:01:21.621Z,0
2016-07-30T01:02:21.586Z,0
2016-07-30T01:03:21.567Z,0
2016-07-30T01:04:21.551Z,0
2016-07-30T01:05:21.529Z,0
2016-07-30T01:06:21.523Z,0
2016-07-30T01:08:21.470Z,0
2016-07-30T01:09:21.459Z,0
2016-07-30T01:10:21.439Z,0
2016-07-30T01:11:21.416Z,0
2016-07-30T01:12:21.399Z,0
2016-07-30T01:13:21.376Z,0
2016-07-30T01:14:21.377Z,0
2016-07-30T01:15:21.348Z,0
2016-07-30T01:16:21.325Z,0
2016-07-30T01:17:21.309Z,0
2016-07-30T01:18:21.282Z,0
2016-07-30T01:19:21.266Z,0
2016-07-30T01:20:21.252Z,0
2016-07-30T01:21:21.226Z,0
2016-07-30T01:23:21.194Z,0
2016-07-30T01:24:21.875Z,0
2016-07-30T01:25:21.155Z,0
2016-07-30T01:26:21.140Z,0
2016-07-30T01:27:21.123Z,0
2016-07-30T01:28:21.099Z,0
2016-07-30T01:29:21.082Z,0
2016-07-30T01:30:21.061Z,0
2016-07-30T01:31:21.047Z,0
2016-07-30T01:32:21.027Z,0
2016-07-30T01:33:21.005Z,0
2016-07-30T01:34:20.983Z,0
2016-07-30T01:35:20.965Z,0
2016-07-30T01:36:20.941Z,0
2016-07-30T01:38:20.910Z,0
2016-07-30T01:39:20.891Z,0
2016-07-30T01:40:20.873Z,0
2016-07-30T01:41:20.852Z,0
2016-07-30T01:42:20.842Z,0
2016-07-30T01:43:20.819Z,0
2016-07-30T01:44:20.800Z,0
2016-07-30T01:45:20.776Z,0
2016-07-30T01:46:20.756Z,0
2016-07-30T01:47:20.742Z,0
2016-07-30T01:48:20.721Z,0
2016-07-30T01:49:20.707Z,0
2016-07-30T01:50:20.684Z,0
2016-07-30T01:51:20.666Z,0
2016-07-30T01:53:20.625Z,0
2016-07-30T01:54:20.611Z,0
2016-07-30T01:55:20.594Z,0
2016-07-30T01:56:20.573Z,0
2016-07-30T01:57:20.560Z,0
2016-07-30T01:58:20.530Z,0
2016-07-30T01:59:20.514Z,0
2016-07-30T02:00:20.494Z,0
2016-07-30T02:01:20.480Z,0
2016-07-30T02:02:20.467Z,0
2016-07-30T02:03:20.436Z,0
2016-07-30T02:04:20.419Z,0
2016-07-30T02:05:20.405Z,0
2016-07-30T02:06:20.382Z,0
2016-07-30T02:08:20.352Z,0
2016-07-30T02:09:20.330Z,0
2016-07-30T02:10:20.310Z,0
2016-07-30T02:11:20.290Z,0
2016-07-30T02:12:20.269Z,0
2016-07-30T02:13:20.250Z,0
2016-07-30T02:14:20.230Z,0
2016-07-30T02:15:20.223Z,0
2016-07-30T02:16:20.199Z,0
2016-07-30T02:17:20.177Z,0
2016-07-30T02:18:20.158Z,0
2016-07-30T02:19:20.138Z,0
2016-07-30T02:20:20.130Z,0
2016-07-30T02:21:20.102Z,0
2016-07-30T02:22:20.079Z,0
2016-07-30T02:23:20.068Z,0
2016-07-30T02:24:20.046Z,0
2016-07-30T02:25:20.042Z,0
2016-07-30T02:26:20.008Z,0
2016-07-30T02:27:19.984Z,0
2016-07-30T02:28:19.972Z,0
2016-07-30T02:29:19.951Z,0
2016-07-30T02:30:19.933Z,0
2016-07-30T02:31:19.913Z,0
2016-07-30T02:32:20.590Z,0
2016-07-30T02:33:19.879Z,0
2016-07-30T02:34:19.856Z,0
2016-07-30T02:35:19.839Z,0
2016-07-30T02:36:19.820Z,0
2016-07-30T02:37:19.811Z,0
2016-07-30T02:38:19.791Z,0
2016-07-30T02:39:19.763Z,0
2016-07-30T02:40:19.741Z,0
2016-07-30T02:41:19.730Z,0
2016-07-30T02:42:19.705Z,0
2016-07-30T02:43:19.686Z,0
2016-07-30T02:44:19.669Z,0
2016-07-30T02:45:19.650Z,0
2016-07-30T02:46:19.634Z,0
2016-07-30T02:47:19.617Z,0
2016-07-30T02:48:19.592Z,0
2016-07-30T02:49:19.580Z,0
2016-07-30T02:50:19.556Z,0
2016-07-30T02:51:19.539Z,0
2016-07-30T02:52:20.210Z,0
2016-07-30T02:53:19.500Z,0
2016-07-30T02:54:19.479Z,0
2016-07-30T02:55:19.460Z,0
2016-07-30T02:56:19.454Z,0
2016-07-30T02:57:19.430Z,0
2016-07-30T02:58:19.401Z,0
2016-07-30T02:59:19.386Z,0
2016-07-30T03:00:19.368Z,0
2016-07-30T03:01:19.347Z,0
2016-07-30T03:02:19.335Z,0
2016-07-30T03:03:19.312Z,0
2016-07-30T03:04:19.290Z,0
2016-07-30T03:05:19.272Z,0
2016-07-30T03:06:19.249Z,4
2016-07-30T03:07:19.236Z,4
2016-07-30T03:08:19.216Z,4
2016-07-30T03:09:19.191Z,4
2016-07-30T03:10:19.177Z,0
2016-07-30T03:11:19.159Z,4
2016-07-30T03:12:19.141Z,4
2016-07-30T03:13:19.810Z,4
2016-07-30T03:14:19.099Z,4
2016-07-30T03:15:19.081Z,4
2016-07-30T03:16:19.059Z,4
2016-07-30T03:17:19.042Z,4
2016-07-30T03:18:19.038Z,8
2016-07-30T03:19:19.003Z,4
2016-07-30T03:20:18.992Z,8
2016-07-30T03:21:18.965Z,8
2016-07-30T03:22:18.944Z,12
2016-07-30T03:23:18.946Z,12
2016-07-30T03:24:18.914Z,12
2016-07-30T03:25:18.888Z,16
2016-07-30T03:26:18.867Z,16
2016-07-30T03:27:18.852Z,20
2016-07-30T03:28:18.830Z,20
2016-07-30T03:29:18.817Z,28
2016-07-30T03:30:18.795Z,32
2016-07-30T03:31:18.772Z,36
2016-07-30T03:32:18.758Z,44
2016-07-30T03:33:18.737Z,48
2016-07-30T03:34:18.718Z,52
2016-07-30T03:35:18.702Z,64
2016-07-30T03:36:18.677Z,72
2016-07-30T03:37:18.662Z,84
2016-07-30T03:38:18.643Z,92
2016-07-30T03:39:18.631Z,92
2016-07-30T03:40:18.602Z,100
2016-07-30T03:41:18.582Z,104
2016-07-30T03:42:18.563Z,104
2016-07-30T03:43:18.548Z,116
2016-07-30T03:44:18.527Z,128
2016-07-30T03:45:18.522Z,148
2016-07-30T03:46:18.492Z,172
2016-07-30T03:47:18.475Z,204
2016-07-30T03:48:18.450Z,244
2016-07-30T03:49:18.450Z,268
2016-07-30T03:50:18.411Z,288
2016-07-30T03:51:18.399Z,316
2016-07-30T03:52:18.383Z,352
2016-07-30T03:53:18.365Z,400
2016-07-30T03:54:18.339Z,444
2016-07-30T03:55:18.316Z,500
2016-07-30T03:56:18.297Z,560
2016-07-30T03:57:18.283Z,628
2016-07-30T03:58:18.264Z,684
2016-07-30T03:59:18.243Z,744
2016-07-30T04:00:18.224Z,812
2016-07-30T04:01:18.205Z,880
2016-07-30T04:02:18.188Z,948
2016-07-30T04:03:18.173Z,1012
2016-07-30T04:04:18.154Z,1072
2016-07-30T04:05:18.127Z,1124
2016-07-30T04:06:18.110Z,1188
2016-07-30T04:07:18.092Z,1272
2016-07-30T04:08:18.072Z,1372
2016-07-30T04:09:18.052Z,1476
2016-07-30T04:10:18.039Z,1576
2016-07-30T04:11:18.018Z,1676
2016-07-30T04:12:18.009Z,1756
2016-07-30T04:13:17.979Z,1816
2016-07-30T04:14:17.957Z,1864
2016-07-30T04:15:17.943Z,1892
2016-07-30T04:16:17.921Z,1920
2016-07-30T04:17:17.905Z,1948
2016-07-30T04:18:17.884Z,1984
2016-07-30T04:19:17.863Z,2048
2016-07-30T04:20:17.846Z,2116
2016-07-30T04:21:17.829Z,2184
2016-07-30T04:22:17.806Z,2248
2016-07-30T04:23:17.792Z,2304
2016-07-30T04:24:17.771Z,2360
2016-07-30T04:25:17.751Z,2404
2016-07-30T04:26:17.732Z,2452
2016-07-30T04:27:17.715Z,2508
2016-07-30T04:28:17.693Z,2564
2016-07-30T04:29:17.672Z,2648
2016-07-30T04:30:17.656Z,2764
2016-07-30T04:31:17.636Z,2912
2016-07-30T04:32:17.626Z,3128
2016-07-30T04:33:17.597Z,3384
2016-07-30T04:34:18.271Z,3696
2016-07-30T04:35:17.561Z,4052
2016-07-30T04:36:17.546Z,4332
2016-07-30T04:37:17.523Z,4232
2016-07-30T04:38:17.511Z,4100
2016-07-30T04:39:17.488Z,4192
2016-07-30T04:40:17.470Z,4392
2016-07-30T04:41:17.454Z,4448
2016-07-30T04:42:17.429Z,4408
2016-07-30T04:43:17.412Z,4368
2016-07-30T04:44:17.390Z,4348
2016-07-30T04:45:17.387Z,4284
2016-07-30T04:46:17.366Z,4044
2016-07-30T04:47:17.332Z,3784
2016-07-30T04:48:17.318Z,3700
2016-07-30T04:49:17.306Z,3892
2016-07-30T04:50:17.971Z,4272
2016-07-30T04:51:17.263Z,4692
2016-07-30T04:52:17.246Z,5020
2016-07-30T04:53:17.229Z,5300
2016-07-30T04:54:17.207Z,5496
2016-07-30T04:55:17.185Z,5708
2016-07-30T04:56:17.173Z,5968
2016-07-30T04:57:17.152Z,6220
2016-07-30T04:58:17.134Z,6396
2016-07-30T04:59:17.115Z,6488
2016-07-30T05:00:17.095Z,6500
2016-07-30T05:01:17.075Z,6436
2016-07-30T05:02:17.062Z,6300
2016-07-30T05:03:17.039Z,5900
2016-07-30T05:04:17.019Z,5576
2016-07-30T05:05:17.019Z,5332
2016-07-30T05:06:16.981Z,5108
2016-07-30T05:07:17.668Z,4960
2016-07-30T05:09:16.931Z,4488
2016-07-30T05:10:16.916Z,4676
2016-07-30T05:11:16.892Z,4912
2016-07-30T05:12:16.882Z,5024
2016-07-30T05:13:16.863Z,4856
2016-07-30T05:14:16.842Z,4832
2016-07-30T05:15:16.828Z,4952
2016-07-30T05:16:16.803Z,5044
2016-07-30T05:17:16.792Z,5300
2016-07-30T05:18:16.773Z,5536
2016-07-30T05:19:16.751Z,5916
2016-07-30T05:20:16.739Z,6372
2016-07-30T05:21:16.715Z,6780
2016-07-30T05:22:16.700Z,7056
2016-07-30T05:24:16.658Z,7276
2016-07-30T05:25:16.645Z,7272
2016-07-30T05:26:16.638Z,7180
2016-07-30T05:27:16.610Z,7120
2016-07-30T05:28:16.600Z,7080
2016-07-30T05:29:16.574Z,7068
2016-07-30T05:30:16.561Z,7112
2016-07-30T05:31:16.552Z,7180
2016-07-30T05:32:16.514Z,7252
2016-07-30T05:33:16.504Z,7304
2016-07-30T05:34:16.489Z,7340
2016-07-30T05:35:16.468Z,7368
2016-07-30T05:36:16.446Z,7440
2016-07-30T05:37:16.431Z,7572
2016-07-30T05:39:16.397Z,8068
2016-07-30T05:40:16.381Z,8380
2016-07-30T05:41:16.373Z,8720
2016-07-30T05:42:16.342Z,8936
2016-07-30T05:43:16.329Z,9144
2016-07-30T05:44:16.305Z,9336
2016-07-30T05:45:16.294Z,9012
2016-07-30T05:46:16.279Z,8724
2016-07-30T05:47:16.258Z,8596
2016-07-30T05:48:16.239Z,8760
2016-07-30T05:49:16.224Z,9408
2016-07-30T05:50:16.200Z,9804
2016-07-30T05:51:16.188Z,10244
2016-07-30T05:52:16.162Z,10304
2016-07-30T05:53:16.150Z,10148
2016-07-30T05:54:16.132Z,10336
2016-07-30T05:55:16.116Z,11404
2016-07-30T05:56:16.098Z,12760
2016-07-30T05:57:16.076Z,14020
2016-07-30T05:58:16.063Z,14752
2016-07-30T05:59:16.052Z,14932
2016-07-30T06:00:16.038Z,14660
2016-07-30T06:01:16.011Z,13776
2016-07-30T06:02:15.992Z,14160
2016-07-30T06:03:15.978Z,13804
2016-07-30T06:04:15.961Z,13476
2016-07-30T06:05:15.940Z,13272
2016-07-30T06:06:15.925Z,13128
2016-07-30T06:07:15.910Z,12428
2016-07-30T06:08:15.891Z,11716
2016-07-30T06:09:15.878Z,12840
2016-07-30T06:10:15.863Z,15528
2016-07-30T06:11:15.850Z,15088
2016-07-30T06:12:15.830Z,17696
2016-07-30T06:13:15.809Z,15112
2016-07-30T06:14:15.796Z,29152
2016-07-30T06:15:15.776Z,28672
2016-07-30T06:16:16.454Z,27776
2016-07-30T06:17:15.747Z,29856
2016-07-30T06:18:15.728Z,13968
2016-07-30T06:19:15.709Z,22080
2016-07-30T06:20:15.712Z,25792
2016-07-30T06:21:15.688Z,26144
2016-07-30T06:22:15.664Z,22048
2016-07-30T06:23:15.648Z,20192
2016-07-30T06:24:15.630Z,26720
2016-07-30T06:25:15.622Z,31040
2016-07-30T06:26:15.601Z,31968
2016-07-30T06:27:15.582Z,26528
2016-07-30T06:28:15.580Z,23424
2016-07-30T06:29:15.573Z,32256
2016-07-30T06:30:15.549Z,32384
2016-07-30T06:31:15.527Z,21664
2016-07-30T06:32:15.511Z,31552
2016-07-30T06:33:15.494Z,28608
2016-07-30T06:34:15.482Z,28000
2016-07-30T06:35:15.469Z,28800
2016-07-30T06:36:15.455Z,28192
2016-07-30T06:37:15.436Z,19104
2016-07-30T06:38:15.424Z,17416
2016-07-30T06:39:15.404Z,13632
2016-07-30T06:40:15.394Z,23552
2016-07-30T06:41:15.378Z,20480
2016-07-30T06:42:15.362Z,10304
2016-07-30T06:43:15.348Z,14152
2016-07-30T06:44:16.033Z,12500
2016-07-30T06:45:15.323Z,11920
2016-07-30T06:46:15.302Z,11276
2016-07-30T06:47:15.304Z,10956
2016-07-30T06:48:15.270Z,10860
2016-07-30T06:49:15.259Z,10096
2016-07-30T06:50:15.247Z,14648
2016-07-30T06:51:15.227Z,25568
2016-07-30T06:52:15.216Z,27200
2016-07-30T06:53:15.198Z,62784
2016-07-30T06:54:15.196Z,20512
2016-07-30T06:55:15.171Z,32672
2016-07-30T06:56:15.149Z,39616
2016-07-30T06:57:15.137Z,38272
2016-07-30T06:58:15.119Z,35648
2016-07-30T06:59:15.110Z,34528
2016-07-30T07:00:15.090Z,36448
2016-07-30T07:01:15.075Z,36640
2016-07-30T07:02:15.062Z,35104
2016-07-30T07:03:15.047Z,36512
2016-07-30T07:04:15.029Z,39840
2016-07-30T07:05:15.018Z,37536
2016-07-30T07:06:15.003Z,38112
2016-07-30T07:07:14.990Z,22432
2016-07-30T07:08:14.987Z,42720
2016-07-30T07:09:14.958Z,11640
2016-07-30T07:10:14.947Z,40416
2016-07-30T07:11:14.934Z,45280
2016-07-30T07:12:14.931Z,46336
2016-07-30T07:13:14.921Z,46208
2016-07-30T07:14:14.895Z,23776
2016-07-30T07:15:14.876Z,21984
2016-07-30T07:16:14.866Z,14148
2016-07-30T07:17:14.854Z,49344
2016-07-30T07:18:14.840Z,16724
2016-07-30T07:19:14.829Z,16400
2016-07-30T07:20:14.811Z,44480
2016-07-30T07:21:14.801Z,17776
2016-07-30T07:22:14.793Z,46816
2016-07-30T07:23:14.770Z,22368
2016-07-30T07:24:14.771Z,35040
2016-07-30T07:25:14.746Z,25536
2016-07-30T07:26:14.734Z,22240
2016-07-30T07:27:14.721Z,23072
2016-07-30T07:28:14.707Z,62752
2016-07-30T07:29:14.694Z,29312
2016-07-30T07:30:14.681Z,23648
2016-07-30T07:31:14.669Z,58880
2016-07-30T07:32:14.657Z,59808
2016-07-30T07:33:14.643Z,61344
2016-07-30T07:34:14.628Z,63072
2016-07-30T07:35:14.618Z,62976
2016-07-30T07:36:14.601Z,46368
2016-07-30T07:37:14.593Z,35200
2016-07-30T07:38:14.577Z,52064
2016-07-30T07:39:14.567Z,27264
2016-07-30T07:40:14.556Z,48800
2016-07-30T07:41:14.543Z,19648
2016-07-30T07:42:14.543Z,19584
2016-07-30T07:43:14.519Z,20576
2016-07-30T07:44:14.511Z,17696
2016-07-30T07:45:14.498Z,16932
2016-07-30T07:46:14.482Z,18784
2016-07-30T07:47:14.476Z,20608
2016-07-30T07:48:14.514Z,21664
2016-07-30T07:49:14.450Z,20576
2016-07-30T07:50:14.439Z,20736
2016-07-30T07:51:14.429Z,21568
2016-07-30T07:52:14.413Z,22848
2016-07-30T07:53:14.398Z,24128
2016-07-30T07:54:14.381Z,24896
2016-07-30T07:55:14.373Z,26144
2016-07-30T07:56:14.359Z,26560
2016-07-30T07:57:14.347Z,25472
2016-07-30T07:58:14.333Z,22944
2016-07-30T07:59:14.318Z,19712
2016-07-30T08:00:14.310Z,17144
2016-07-30T08:01:14.300Z,16324
2016-07-30T08:02:14.278Z,14612
2016-07-30T08:03:14.265Z,12764
2016-07-30T08:04:14.254Z,12836
2016-07-30T08:05:14.242Z,14568
2016-07-30T08:06:14.230Z,16344
2016-07-30T08:07:14.206Z,17032
2016-07-30T08:08:14.195Z,16172
2016-07-30T08:09:14.185Z,14980
2016-07-30T08:10:14.174Z,14704
2016-07-30T08:11:14.154Z,16032
2016-07-30T08:12:14.137Z,16620
2016-07-30T08:13:14.124Z,18816
2016-07-30T08:14:14.119Z,27072
2016-07-30T08:15:14.096Z,51904
2016-07-30T08:16:14.083Z,63744
2016-07-30T08:17:14.078Z,65280
2016-07-30T08:18:14.052Z,68512
2016-07-30T08:19:14.040Z,69696
2016-07-30T08:20:14.025Z,67264
2016-07-30T08:21:14.013Z,65120
2016-07-30T08:22:13.999Z,66496
2016-07-30T08:23:13.994Z,66912
2016-07-30T08:24:13.972Z,66816
2016-07-30T08:25:13.963Z,71168
2016-07-30T08:26:13.956Z,70016
2016-07-30T08:27:13.943Z,72352
2016-07-30T08:28:13.927Z,75168
2016-07-30T08:29:13.911Z,30656
2016-07-30T08:30:13.907Z,81088
2016-07-30T08:31:13.892Z,78336
2016-07-30T08:32:13.888Z,30560
2016-07-30T08:33:13.876Z,18080
2016-07-30T08:34:13.869Z,17128
2016-07-30T08:35:13.858Z,18080
2016-07-30T08:36:13.842Z,20384
2016-07-30T08:37:13.830Z,24320
2016-07-30T08:38:13.815Z,28000
2016-07-30T08:39:13.810Z,50432
2016-07-30T08:40:13.798Z,30208
2016-07-30T08:41:13.783Z,35904
2016-07-30T08:42:13.771Z,55200
2016-07-30T08:43:13.760Z,31712
2016-07-30T08:44:13.755Z,44288
2016-07-30T08:45:13.734Z,41568
2016-07-30T08:46:13.722Z,28864
2016-07-30T08:47:13.713Z,26112
2016-07-30T08:48:13.799Z,45600
2016-07-30T08:49:13.687Z,16408
2016-07-30T08:50:13.675Z,13776
2016-07-30T08:51:13.667Z,13020
2016-07-30T08:52:13.653Z,11800
2016-07-30T08:53:13.650Z,11320
2016-07-30T08:54:13.631Z,12516
2016-07-30T08:55:13.617Z,14708
2016-07-30T08:56:13.612Z,17684
2016-07-30T08:57:13.590Z,20896
2016-07-30T08:58:13.581Z,85504
2016-07-30T08:59:13.567Z,85568
2016-07-30T09:00:13.552Z,17792
2016-07-30T09:01:13.538Z,16944
2016-07-30T09:02:13.528Z,15920
2016-07-30T09:03:13.511Z,15844
2016-07-30T09:04:13.503Z,17600
2016-07-30T09:05:13.482Z,43456
2016-07-30T09:06:13.481Z,83168
2016-07-30T09:07:13.463Z,80064
2016-07-30T09:08:13.449Z,76192
2016-07-30T09:09:13.438Z,77248
2016-07-30T09:10:13.427Z,77728
2016-07-30T09:11:13.408Z,85984
2016-07-30T09:12:13.403Z,90944
2016-07-30T09:13:13.385Z,90976
2016-07-30T09:14:13.374Z,26240
2016-07-30T09:15:13.369Z,25216
2016-07-30T09:16:13.355Z,53600
2016-07-30T09:17:13.353Z,24096
2016-07-30T09:18:13.334Z,25376
2016-07-30T09:19:13.325Z,28320
2016-07-30T09:20:13.313Z,39264
2016-07-30T09:21:13.305Z,77440
2016-07-30T09:22:13.295Z,39360
2016-07-30T09:23:13.283Z,61888
2016-07-30T09:25:13.264Z,100096
2016-07-30T09:26:13.249Z,94240
2016-07-30T09:27:13.245Z,96320
2016-07-30T09:28:13.233Z,94784
2016-07-30T09:29:13.222Z,66464
2016-07-30T09:30:13.212Z,94752
2016-07-30T09:31:13.202Z,86656
2016-07-30T09:32:13.201Z,81792
2016-07-30T09:33:13.191Z,81184
2016-07-30T09:34:13.183Z,83744
2016-07-30T09:35:13.180Z,84160
2016-07-30T09:36:13.168Z,83840
2016-07-30T09:37:13.160Z,86208
2016-07-30T09:38:13.156Z,95040
2016-07-30T09:40:13.145Z,66688
2016-07-30T09:41:13.134Z,32224
2016-07-30T09:42:13.128Z,26272
2016-07-30T09:43:13.125Z,30304
2016-07-30T09:44:13.131Z,31904
2016-07-30T09:45:13.109Z,48256
2016-07-30T09:46:13.106Z,53952
2016-07-30T09:47:13.098Z,51584
2016-07-30T09:48:13.088Z,45856
2016-07-30T09:49:13.081Z,37824
2016-07-30T09:50:13.070Z,95104
2016-07-30T09:51:13.066Z,91232
2016-07-30T09:52:13.059Z,97888
2016-07-30T09:53:13.050Z,93920
2016-07-30T09:54:13.052Z,44448
2016-07-30T09:55:13.032Z,65248
2016-07-30T09:56:13.026Z,49440
2016-07-30T09:57:13.020Z,87520
2016-07-30T09:58:13.018Z,101472
2016-07-30T09:59:13.004Z,98368
2016-07-30T10:00:12.998Z,93664
2016-07-30T10:01:12.990Z,88576
2016-07-30T10:02:12.983Z,84928
2016-07-30T10:03:12.980Z,93600
2016-07-30T10:04:12.971Z,53216
2016-07-30T10:05:12.970Z,74048
2016-07-30T10:06:12.958Z,55648
2016-07-30T10:07:13.645Z,71904
2016-07-30T10:08:12.948Z,68128
2016-07-30T10:09:12.939Z,72608
2016-07-30T10:10:12.935Z,100480
2016-07-30T10:11:12.931Z,66272
2016-07-30T10:12:12.921Z,76448
2016-07-30T10:13:12.918Z,75136
2016-07-30T10:14:12.915Z,59520
2016-07-30T10:15:12.907Z,84672
2016-07-30T10:16:12.903Z,43296
2016-07-30T10:17:12.897Z,34720
2016-07-30T10:18:12.889Z,30784
2016-07-30T10:19:12.886Z,30208
2016-07-30T10:20:12.877Z,40512
2016-07-30T10:21:12.882Z,73184
2016-07-30T10:22:12.866Z,66016
2016-07-30T10:23:12.857Z,36224
2016-07-30T10:24:12.850Z,33088
2016-07-30T10:25:12.848Z,32384
2016-07-30T10:26:12.833Z,40736
2016-07-30T10:27:12.832Z,33024
2016-07-30T10:28:12.823Z,28992
2016-07-30T10:29:12.815Z,26048
2016-07-30T10:30:12.809Z,24320
2016-07-30T10:31:12.802Z,24576
2016-07-30T10:32:12.797Z,24320
2016-07-30T10:33:12.791Z,23648
2016-07-30T10:34:12.774Z,23712
2016-07-30T10:35:12.771Z,23680
2016-07-30T10:36:12.759Z,24896
2016-07-30T10:37:12.752Z,29312
2016-07-30T10:38:12.742Z,51008
2016-07-30T10:39:12.732Z,34432
2016-07-30T10:40:12.722Z,31456
2016-07-30T10:41:12.716Z,53632
2016-07-30T10:42:12.705Z,101312
2016-07-30T10:43:12.696Z,109888
2016-07-30T10:44:12.686Z,100800
2016-07-30T10:45:12.675Z,100960
2016-07-30T10:46:12.679Z,96192
2016-07-30T10:47:12.659Z,91648
2016-07-30T10:48:12.652Z,96928
2016-07-30T10:49:12.642Z,92768
2016-07-30T10:50:12.633Z,39616
2016-07-30T10:51:12.629Z,36448
2016-07-30T10:52:12.621Z,31552
2016-07-30T10:53:12.618Z,42016
2016-07-30T10:54:12.606Z,31328
2016-07-30T10:55:12.600Z,36352
2016-07-30T10:56:12.608Z,57664
2016-07-30T10:57:12.588Z,75808
2016-07-30T10:58:12.586Z,87680
2016-07-30T10:59:12.574Z,95008
2016-07-30T11:00:12.570Z,69600
2016-07-30T11:01:12.556Z,88320
2016-07-30T11:02:12.550Z,97824
2016-07-30T11:03:12.545Z,92096
2016-07-30T11:04:12.537Z,100960
2016-07-30T11:05:12.531Z,100352
2016-07-30T11:06:12.529Z,99968
2016-07-30T11:07:12.519Z,72000
2016-07-30T11:08:12.516Z,90592
2016-07-30T11:09:12.507Z,73824
2016-07-30T11:10:12.507Z,45920
2016-07-30T11:11:13.690Z,99328
2016-07-30T11:12:12.493Z,69664
2016-07-30T11:13:12.490Z,69536
2016-07-30T11:14:12.482Z,62496
2016-07-30T11:15:12.476Z,64288
2016-07-30T11:16:12.473Z,101696
2016-07-30T11:17:12.468Z,59104
2016-07-30T11:18:12.468Z,54592
2016-07-30T11:19:12.456Z,68288
2016-07-30T11:20:12.450Z,93824
2016-07-30T11:21:12.450Z,108576
2016-07-30T11:22:12.440Z,96768
2016-07-30T11:23:12.439Z,100800
2016-07-30T11:24:12.441Z,102560
2016-07-30T11:25:12.433Z,100832
2016-07-30T11:26:12.425Z,29248
2016-07-30T11:27:12.420Z,27104
2016-07-30T11:28:12.424Z,30944
2016-07-30T11:29:12.415Z,36320
2016-07-30T11:30:12.409Z,96128
2016-07-30T11:31:12.403Z,39072
2016-07-30T11:32:12.395Z,101728
2016-07-30T11:33:12.399Z,103232
2016-07-30T11:34:12.390Z,98304
2016-07-30T11:35:12.383Z,98880
2016-07-30T11:36:12.380Z,73632
2016-07-30T11:37:12.371Z,108032
2016-07-30T11:38:12.370Z,105696
2016-07-30T11:39:12.364Z,100960
2016-07-30T11:40:12.370Z,96192
2016-07-30T11:41:12.359Z,66976
2016-07-30T11:42:12.352Z,31040
2016-07-30T11:43:12.349Z,27392
2016-07-30T11:44:12.348Z,24480
2016-07-30T11:45:12.342Z,24320
2016-07-30T11:46:12.339Z,27456
2016-07-30T11:47:12.335Z,31104
2016-07-30T11:48:12.323Z,35168
2016-07-30T11:49:13.020Z,41600
2016-07-30T11:50:12.319Z,75104
2016-07-30T11:51:12.312Z,96032
2016-07-30T11:52:12.309Z,108352
2016-07-30T11:53:12.294Z,70752
2016-07-30T11:54:12.289Z,50240
2016-07-30T11:55:12.287Z,40288
2016-07-30T11:56:12.282Z,40736
2016-07-30T11:57:12.273Z,44640
2016-07-30T11:58:12.268Z,52832
2016-07-30T11:59:12.264Z,53888
2016-07-30T12:00:12.255Z,54592
2016-07-30T12:01:12.249Z,62368
2016-07-30T12:02:12.242Z,73888
2016-07-30T12:03:12.231Z,59488
2016-07-30T12:04:12.234Z,66048
2016-07-30T12:05:12.222Z,48672
2016-07-30T12:06:12.216Z,49248
2016-07-30T12:07:12.209Z,103648
2016-07-30T12:08:12.198Z,60000
2016-07-30T12:09:12.196Z,108224
2016-07-30T12:10:12.189Z,104288
2016-07-30T12:11:12.185Z,67264
2016-07-30T12:12:12.176Z,82592
2016-07-30T12:13:12.174Z,75360
2016-07-30T12:14:12.165Z,49632
2016-07-30T12:15:12.156Z,37280
2016-07-30T12:16:12.845Z,29984
2016-07-30T12:17:12.158Z,26048
2016-07-30T12:18:12.139Z,22912
2016-07-30T12:19:12.139Z,21056
2016-07-30T12:20:12.128Z,20832
2016-07-30T12:21:12.122Z,21600
2016-07-30T12:22:12.114Z,24000
2016-07-30T12:23:12.105Z,27200
2016-07-30T12:24:12.108Z,32512
2016-07-30T12:25:12.097Z,32576
2016-07-30T12:26:12.082Z,32032
2016-07-30T12:27:12.088Z,29408
2016-07-30T12:28:12.066Z,27520
2016-07-30T12:29:12.060Z,26400
2016-07-30T12:30:12.746Z,25856
2016-07-30T12:31:12.045Z,25312
2016-07-30T12:32:12.035Z,24352
2016-07-30T12:33:12.021Z,23808
2016-07-30T12:34:12.027Z,24480
2016-07-30T12:35:12.008Z,26624
2016-07-30T12:36:11.994Z,31008
2016-07-30T12:37:11.988Z,44704
2016-07-30T12:38:11.978Z,52224
2016-07-30T12:39:11.966Z,45952
2016-07-30T12:40:11.955Z,49248
2016-07-30T12:41:11.944Z,42240
2016-07-30T12:42:11.938Z,36192
2016-07-30T12:43:11.924Z,36544
2016-07-30T12:44:11.919Z,36096
2016-07-30T12:45:11.917Z,38144
2016-07-30T12:46:11.894Z,40864
2016-07-30T12:47:11.887Z,46624
2016-07-30T12:48:11.887Z,49728
2016-07-30T12:49:11.865Z,52960
2016-07-30T12:50:11.906Z,48416
2016-07-30T12:51:11.847Z,47232
2016-07-30T12:52:11.845Z,43168
2016-07-30T12:53:11.850Z,40384
2016-07-30T12:54:11.815Z,33024
2016-07-30T12:55:11.813Z,31264
2016-07-30T12:56:11.799Z,30432
2016-07-30T12:57:11.792Z,30048
2016-07-30T12:58:11.780Z,32960
2016-07-30T12:59:11.774Z,28832
2016-07-30T13:00:11.766Z,27072
2016-07-30T13:01:11.753Z,25024
2016-07-30T13:02:11.745Z,23264
2016-07-30T13:03:11.734Z,22208
2016-07-30T13:04:11.721Z,21792
2016-07-30T13:05:11.715Z,22144
2016-07-30T13:06:11.700Z,23584
2016-07-30T13:07:11.695Z,25728
2016-07-30T13:08:11.683Z,27584
2016-07-30T13:09:11.671Z,29472
2016-07-30T13:10:11.661Z,31040
2016-07-30T13:11:11.646Z,31360
2016-07-30T13:12:11.638Z,31456
2016-07-30T13:13:11.631Z,31104
2016-07-30T13:14:11.616Z,31104
2016-07-30T13:15:11.610Z,31968
2016-07-30T13:16:11.591Z,33984
2016-07-30T13:17:11.584Z,37280
2016-07-30T13:18:11.577Z,42208
2016-07-30T13:19:11.566Z,39424
2016-07-30T13:20:11.550Z,38240
2016-07-30T13:21:11.543Z,36512
2016-07-30T13:22:11.531Z,34976
2016-07-30T13:23:11.529Z,33728
2016-07-30T13:24:11.507Z,33920
2016-07-30T13:26:11.489Z,43680
2016-07-30T13:27:11.481Z,38816
2016-07-30T13:28:11.478Z,45472
2016-07-30T13:29:11.462Z,45408
2016-07-30T13:30:11.452Z,44064
2016-07-30T13:31:11.500Z,47168
2016-07-30T13:32:11.428Z,85856
2016-07-30T13:33:11.587Z,77920
2016-07-30T13:34:11.783Z,56896